Search for airport 
image banner adimage banner adimage banner ad
image banner ad

2IA5 - Grape Community Hospital

Located in Hamburg, United States

ICAO - 2IA5, IATA -

Data provided by Airmate  

General information

Coordinates: N40°37'16" W95°39'4"
Elevation is 961 feet MSL.
Magnetic variation is 06° East
View others Airports in Iowa

Operational data

Special qualification required
Current time UTC:
Current local time:
Weather at : KAFK - Nebraska City Muni ( 18 km )
METAR: KAFK 181715Z AUTO 06012KT 10SM CLR 30/18 A2981 RMK AO2 T03030181
View NOTAMs / SUP AIP / TFR affecting this airport [VIEW]
Communications frequencies: [VIEW]

Runways:

Airport contact information

Address: Hamburg United States

Satellite view of 2IA5